• Join FlightAware (Why Join?)
  • Login
  • US Flag 
08:39PM EDT


 

Airport Tracker/Info


-or-


 

Live Flight TrackerFlight Track Log ✈ AAL313 ✈ 20-Jun-2013 ✈ KLGA - KORD

Flight Track Log - Related Links

Times and Time Zones

All times are in EDT time to prevent confusion due to time zone crossing. See the AAL313 flight status page for this flight to view local times or setup timezone preferences in your user account.

Time Position Orientation Groundspeed Altitude Reporting Facility
EDT Latitude Longitude Course Direction KTS MPH feet Rate Location/Type
09:23AM 40.7667 -73.8500 299° West 162 186 1,400  Level New York TRACON
09:24AM 40.7500 -73.8000 114° Southeast 210 242 3,000 1,920 Climbing New York TRACON
09:25AM 40.8667 -74.0787 270° West  Level FlightAware Approximate
09:25AM 40.8000 -73.8000 360° North 233 268 5,100  Level New York TRACON
09:26AM 40.9136 -74.1937 304° West  Level FlightAware Approximate
09:26AM 40.8667 -73.8167 349° North 263 303 8,200  Level New York TRACON
09:27AM 40.9694 -74.3053 304° West  Level FlightAware Approximate
09:28AM 41.0200 -74.4211 299° West  Level FlightAware Approximate
09:28AM 40.9394 -73.9547 305° West 298 343 11,500  Level New York Center
09:29AM 40.9967 -74.0703 303° West 330 380 14,000 2,100 Climbing New York Center
09:30AM 41.0289 -74.1872 290° West 341 392 15,800 1,740 Climbing New York Center
09:31AM 41.0544 -74.3094 286° West 346 398 17,500 1,860 Climbing New York Center
09:32AM 41.0817 -74.4378 286° West 353 406 19,500 1,980 Climbing New York Center
09:33AM 41.1089 -74.5686 285° West 365 420 21,400 1,740 Climbing New York Center
09:34AM 41.1400 -74.6997 288° West 370 426 23,000 1,560 Climbing New York Center
09:35AM 41.1919 -74.8242 299° West 376 433 24,600 1,500 Climbing New York Center
09:36AM 41.2422 -74.9375 301° West 386 444 26,000 1,500 Climbing New York Center
09:37AM 41.2939 -75.0622 299° West 391 450 27,700 1,320 Climbing New York Center
09:38AM 41.3497 -75.1872 301° West 391 450 28,700 960 Climbing New York Center
09:39AM 41.4050 -75.3208 299° West 396 456 29,700 1,380 Climbing New York Center
09:40AM 41.4606 -75.4464 301° West 401 461 31,500 1,140 Climbing New York Center
09:41AM 41.5031 -75.5825 293° West 401 461 32,000 240 Climbing New York Center
09:42AM 41.5433 -75.7211 291° West 395 455 32,000  Level New York Center
09:43AM 41.5811 -75.8569 290° West 395 455 32,000  Level New York Center
09:44AM 41.6211 -75.9906 292° West 395 455 32,000  Level New York Center
09:45AM 41.6875 -76.2256 291° West 401 461 32,000  Level Cleveland Center
09:46AM 41.7242 -76.3650 289° West 401 461 32,000  Level Cleveland Center
09:47AM 41.7644 -76.5044 291° West 401 461 32,000  Level Cleveland Center
09:48AM 41.8028 -76.6414 291° West 401 461 32,000  Level Cleveland Center
09:49AM 41.8408 -76.7839 290° West 401 461 32,000  Level Cleveland Center
09:50AM 41.8808 -76.9211 291° West 401 461 32,000  Level Cleveland Center
09:51AM 41.9186 -77.0614 290° West 401 461 32,000  Level Cleveland Center
09:52AM 41.9542 -77.2017 289° West 401 461 32,000  Level Cleveland Center
09:53AM 41.9936 -77.3422 291° West 401 461 32,000  Level Cleveland Center
09:54AM 42.0308 -77.4856 289° West 401 461 32,000  Level Cleveland Center
09:55AM 42.0700 -77.6264 291° West 401 461 32,000  Level Cleveland Center
09:56AM 42.1047 -77.7675 288° West 401 461 32,000  Level Cleveland Center
09:57AM 42.1436 -77.9117 290° West 401 461 32,000  Level Cleveland Center
09:58AM 42.1803 -78.0556 289° West 401 461 32,000  Level Cleveland Center
09:59AM 42.2189 -78.1972 290° West 401 461 32,000  Level Cleveland Center
10:00AM 42.2550 -78.3417 289° West 401 461 32,000  Level Cleveland Center
10:01AM 42.2931 -78.4864 290° West 401 461 32,000  Level Cleveland Center
10:02AM 42.3289 -78.6283 289° West 401 461 32,000  Level Cleveland Center
10:03AM 42.3669 -78.7733 290° West 401 461 32,000  Level Cleveland Center
10:04AM 42.4025 -78.9242 288° West 401 461 32,000  Level Cleveland Center
10:05AM 42.4356 -79.0556 289° West 409 471 32,000  Level Cleveland Center
10:06AM 42.4750 -79.2150 289° West 414 476 32,000  Level Cleveland Center
10:07AM 42.4956 -79.3667 280° West 409 471 32,000  Level Cleveland Center
10:08AM 42.5053 -79.5242 275° West 414 476 32,000  Level Cleveland Center
10:09AM 42.5150 -79.6789 275° West 420 483 32,000  Level Cleveland Center
10:10AM 42.5203 -79.8367 273° West 420 483 32,000  Level Cleveland Center
10:11AM 42.5253 -79.9944 273° West 420 483 32,000  Level Cleveland Center
10:12AM 42.5322 -80.1522 273° West 420 483 32,000  Level Cleveland Center
10:13AM 42.5392 -80.3097 273° West 420 483 32,000  Level Cleveland Center
10:14AM 42.5456 -80.4706 273° West 425 489 32,000  Level Cleveland Center
10:15AM 42.5497 -80.6114 272° West 425 489 32,000  Level Cleveland Center
10:16AM 42.5558 -80.7719 273° West 420 483 32,000  Level Cleveland Center
10:17AM 42.5617 -80.9300 273° West 427 491 32,000  Level Cleveland Center
10:18AM 42.5675 -81.0933 273° West 422 486 32,000  Level Cleveland Center
10:19AM 42.5728 -81.2486 273° West 421 484 32,000  Level Cleveland Center
10:20AM 42.5781 -81.4092 273° West 421 484 32,000  Level Cleveland Center
10:21AM 42.6019 -81.5647 282° West 421 484 32,000  Level Cleveland Center
10:22AM 42.6297 -81.7206 284° West 421 484 32,000  Level Cleveland Center
10:23AM 42.6553 -81.8706 283° West 421 484 32,000  Level Cleveland Center
10:24AM 42.6825 -82.0264 283° West 421 484 32,000  Level Cleveland Center
10:25AM 42.7097 -82.1825 283° West 421 484 32,000  Level Cleveland Center
10:26AM 42.7364 -82.3386 283° West 421 484 32,000  Level Cleveland Center
10:27AM 42.7611 -82.4892 283° West 421 484 32,000  Level Cleveland Center
10:28AM 42.7878 -82.6372 284° West 411 473 32,000  Level Cleveland Center
10:29AM 42.8142 -82.7881 283° West 411 473 32,000  Level Cleveland Center
10:30AM 42.8761 -82.9206 303° West 411 473 32,000  Level Cleveland Center
10:31AM 42.9381 -83.0506 303° West 411 473 32,000  Level Cleveland Center
10:32AM 43.0019 -83.1808 304° West 411 473 32,000  Level Cleveland Center
10:33AM 43.0572 -83.3167 299° West 416 479 32,000  Level Cleveland Center
10:34AM 43.0369 -83.4692 260° West 398 458 32,000  Level Cleveland Center
10:35AM 42.9997 -83.6178 251° West 396 456 32,000  Level Cleveland Center
10:36AM 42.9644 -83.7694 252° West 409 471 32,000  Level Cleveland Center
10:37AM 42.9472 -83.9275 262° West 424 488 32,000  Level Cleveland Center
10:38AM 42.9319 -84.0911 263° West 436 502 32,000  Level Cleveland Center
10:39AM 42.9167 -84.2519 263° West 436 502 32,000  Level Cleveland Center
10:40AM 42.9011 -84.4069 262° West 430 495 32,000  Level Cleveland Center
10:41AM 42.8861 -84.5672 263° West 426 490 32,000  Level Chicago Center
10:42AM 42.8661 -84.7556 262° West 419 482 32,000  Level Chicago Center
10:43AM 42.8506 -84.9128 262° West 419 482 32,000  Level Chicago Center
10:44AM 42.8333 -85.0703 262° West 421 484 32,000 -480 Level Chicago Center
10:45AM 42.8164 -85.2275 262° West 420 483 31,100 -1,200 Descending Chicago Center
10:46AM 42.7994 -85.3775 261° West 406 467 29,600 -1,500 Descending Chicago Center
10:47AM 42.7828 -85.5239 261° West 394 453 28,000 -1,680 Descending Chicago Center
10:48AM 42.7497 -85.6942 255° West 387 445 26,200 -1,620 Descending Chicago Center
10:49AM 42.7250 -85.8375 257° West 387 445 24,700 -1,500 Descending Chicago Center
10:50AM 42.7003 -85.9753 256° West 375 432 23,100 -1,560 Descending Chicago Center
10:52AM 42.6750 -86.1117 256° West 371 427 21,500 -1,440 Descending Chicago Center
10:53AM 42.6503 -86.2456 256° West 366 421 20,200 -1,260 Descending Chicago Center
10:54AM 42.6244 -86.3822 256° West 370 426 19,000 -1,260 Descending Chicago Center
10:55AM 42.5997 -86.5197 256° West 374 430 17,700 -1,200 Descending Chicago Center
10:56AM 42.5739 -86.6508 255° West 362 417 16,600 -1,380 Descending Chicago Center
10:57AM 42.5411 -86.8031 254° West 357 411 14,900 -1,500 Descending Chicago Center
10:58AM 42.5061 -86.9233 248° West 347 399 13,500 -1,440 Descending Chicago Center
10:59AM 42.4747 -87.0422 250° West 338 389 12,000 -1,260 Descending Chicago Center
11:00AM 42.4436 -87.1503 249° West 311 358 10,900 -1,380 Descending Chicago Center
11:01AM 42.4156 -87.2511 249° West 292 336 9,200 -960 Descending Chicago Center
11:02AM 42.3819 -87.3728 250° West 288 331 8,900 -780 Descending Chicago Center
11:03AM 42.3514 -87.4697 247° West 283 326 7,600 -960 Descending Chicago Center
11:04AM 42.3061 -87.5539 234° Southwest 282 325 7,000 -300 Descending Chicago Center
11:05AM 42.2544 -87.6100 219° Southwest 247 284 7,000 -420 Level Chicago Center
11:06AM 42.2081 -87.6631 220° Southwest 219 252 6,200 -1,140 Descending Chicago Center
11:07AM 42.1581 -87.7183 219° Southwest 198 228 4,700 -1,500 Descending Chicago Center